createdAt,value
2018-12-27T02:16:28.376Z,37.00
2018-12-27T02:19:06.901Z,36.83
2018-12-27T04:50:26.329Z,39.60
2018-12-27T04:53:05.014Z,38.77
2018-12-27T11:34:43.779Z,32.37
2018-12-27T11:37:22.103Z,30.70
2018-12-27T13:00:16.137Z,33.10
2018-12-27T13:02:56.324Z,34.20
2018-12-27T13:05:36.464Z,37.20
2018-12-27T13:08:14.871Z,34.87
2018-12-27T16:27:23.054Z,49.07
2018-12-27T16:30:04.015Z,49.90
2018-12-27T16:32:45.429Z,49.87
2018-12-27T16:35:25.955Z,46.63
2018-12-27T16:38:06.539Z,45.37
2018-12-27T16:40:47.968Z,46.70
2018-12-27T16:43:29.401Z,47.87
2018-12-27T16:46:10.058Z,47.00
2018-12-27T16:48:51.607Z,50.27
2018-12-27T16:51:32.922Z,46.63
2018-12-27T16:54:14.177Z,46.83
2018-12-27T16:56:55.459Z,46.63
2018-12-27T16:59:35.121Z,46.13
2018-12-27T17:02:23.588Z,47.27
2018-12-27T17:05:04.195Z,45.97
2018-12-27T17:07:45.321Z,47.50
2018-12-27T17:10:25.866Z,48.03
2018-12-27T17:13:04.409Z,48.17
2018-12-27T20:40:58.732Z,44.90
2018-12-27T20:43:40.192Z,44.33
2018-12-27T22:15:31.377Z,44.13
2018-12-27T22:18:11.529Z,43.93
2018-12-27T22:20:52.949Z,43.67
2018-12-27T22:23:33.819Z,45.07
2018-12-27T22:26:14.786Z,44.80
2018-12-27T22:28:54.623Z,45.70
2018-12-27T22:31:35.622Z,45.53
2018-12-27T22:34:16.769Z,44.40
2018-12-27T22:36:57.780Z,48.30
2018-12-27T22:39:39.041Z,48.10
2018-12-27T22:42:19.769Z,44.40
2018-12-27T22:45:01.281Z,49.13
2018-12-27T22:47:42.764Z,47.77
2018-12-27T22:50:23.601Z,44.23
2018-12-27T22:53:04.190Z,45.23
2018-12-27T22:55:45.474Z,44.23
2018-12-27T22:58:26.073Z,48.80
2018-12-27T23:01:06.961Z,45.20
2018-12-27T23:03:48.314Z,46.93
2018-12-27T23:06:29.862Z,46.20
2018-12-27T23:09:11.316Z,48.53
2018-12-27T23:11:52.323Z,49.73
2018-12-27T23:14:33.758Z,47.00
2018-12-27T23:17:15.195Z,47.57
2018-12-27T23:19:56.449Z,47.37
2018-12-27T23:22:37.893Z,47.03
2018-12-27T23:25:18.940Z,47.10
2018-12-27T23:27:58.430Z,46.17
2018-12-27T23:30:39.721Z,46.33
2018-12-27T23:33:20.415Z,48.60
2018-12-27T23:36:01.851Z,46.43
2018-12-27T23:38:50.068Z,45.40
2018-12-27T23:41:25.630Z,44.97
2018-12-27T23:44:06.470Z,46.30
2018-12-27T23:46:47.787Z,43.87
2018-12-27T23:49:28.998Z,44.80
2018-12-27T23:52:10.349Z,43.60
2018-12-27T23:54:51.066Z,43.23
2018-12-27T23:57:32.227Z,43.23
